createdAt,value
2019-01-09T00:00:27.800Z,3.27
2019-01-09T00:02:56.058Z,4.20
2019-01-09T00:05:28.396Z,3.40
2019-01-09T00:08:41.008Z,4.67
2019-01-09T00:11:09.359Z,3.83
2019-01-09T00:13:38.689Z,4.03
2019-01-09T00:16:06.968Z,4.07
2019-01-09T00:18:36.215Z,2.80
2019-01-09T00:21:08.611Z,3.07
2019-01-09T00:23:36.920Z,2.80
2019-01-09T00:26:06.183Z,2.70
2019-01-09T00:28:34.455Z,2.80
2019-01-09T00:31:03.762Z,2.80
2019-01-09T00:33:32.059Z,3.90
2019-01-09T00:36:00.326Z,2.73
2019-01-09T00:38:28.685Z,3.60
2019-01-09T00:40:57.052Z,3.07
2019-01-09T00:43:26.434Z,2.63
2019-01-09T00:45:54.722Z,3.03
2019-01-09T00:48:23.073Z,2.30
2019-01-09T00:50:51.523Z,3.03
2019-01-09T00:53:20.922Z,3.20
2019-01-09T00:55:49.267Z,2.57
2019-01-09T00:58:17.612Z,2.40
2019-01-09T01:00:47.642Z,2.93
2019-01-09T01:03:43.171Z,2.40
2019-01-09T01:06:41.973Z,3.10
2019-01-09T01:09:16.624Z,2.50
2019-01-09T01:12:03.136Z,2.60
2019-01-09T01:14:50.835Z,3.57
2019-01-09T01:17:40.293Z,3.63
2019-01-09T01:20:11.785Z,2.83
2019-01-09T01:23:02.639Z,3.83
2019-01-09T01:25:36.605Z,4.00
2019-01-09T01:28:08.189Z,3.70
2019-01-09T01:31:02.309Z,3.80
2019-01-09T01:33:45.568Z,3.80
2019-01-09T01:36:19.800Z,4.60
2019-01-09T01:39:06.577Z,4.80
2019-01-09T01:41:38.045Z,5.37
2019-01-09T01:44:09.482Z,4.43
2019-01-09T01:46:57.182Z,4.53
2019-01-09T01:49:57.161Z,4.33
2019-01-09T01:52:34.364Z,4.10
2019-01-09T01:55:12.350Z,4.43
2019-01-09T01:57:46.532Z,4.27
2019-01-09T02:00:34.421Z,4.27
2019-01-09T02:03:11.652Z,4.03
2019-01-09T02:05:45.919Z,4.43
2019-01-09T02:08:47.704Z,3.10
2019-01-09T02:11:27.787Z,3.53
2019-01-09T02:13:59.282Z,3.50
2019-01-09T02:16:51.173Z,4.00
2019-01-09T02:19:37.441Z,3.80
2019-01-09T02:22:11.898Z,3.80
2019-01-09T02:24:43.358Z,4.57
2019-01-09T02:27:14.807Z,3.77
2019-01-09T02:29:46.318Z,4.10
2019-01-09T02:32:33.367Z,3.40
2019-01-09T02:35:02.611Z,3.40
2019-01-09T02:37:32.815Z,3.60
2019-01-09T02:40:01.102Z,3.60
2019-01-09T02:42:29.475Z,3.10
2019-01-09T02:44:57.779Z,4.40
2019-01-09T02:47:26.081Z,3.73
2019-01-09T02:49:54.875Z,4.13
2019-01-09T02:52:23.184Z,3.60
2019-01-09T02:54:52.486Z,3.87
2019-01-09T02:57:20.775Z,2.47
2019-01-09T02:59:49.063Z,3.10
2019-01-09T03:02:17.325Z,2.60
2019-01-09T03:04:45.681Z,2.97
2019-01-09T03:07:13.952Z,2.93
2019-01-09T03:09:42.217Z,3.20
2019-01-09T03:12:10.487Z,2.93
2019-01-09T03:14:38.808Z,2.93
2019-01-09T03:17:07.025Z,3.37
2019-01-09T03:19:35.295Z,2.50
2019-01-09T03:22:04.565Z,4.83
2019-01-09T03:24:32.871Z,2.87
2019-01-09T03:27:01.136Z,2.80
2019-01-09T03:29:29.564Z,2.97
2019-01-09T03:31:57.897Z,2.87
2019-01-09T03:34:26.166Z,3.17
2019-01-09T03:36:54.454Z,3.70
2019-01-09T03:39:22.723Z,3.97
2019-01-09T03:41:50.997Z,3.13
2019-01-09T03:44:19.249Z,3.53
2019-01-09T03:46:47.527Z,3.40
2019-01-09T03:49:15.844Z,3.63
2019-01-09T03:51:44.179Z,4.17
2019-01-09T03:54:13.400Z,3.30
2019-01-09T03:56:41.675Z,2.90
2019-01-09T03:59:09.961Z,3.53
2019-01-09T04:01:38.241Z,2.67
2019-01-09T04:04:06.537Z,2.90
2019-01-09T04:06:41.781Z,3.67
2019-01-09T04:09:05.464Z,3.70
2019-01-09T04:11:33.888Z,4.00
2019-01-09T04:14:02.210Z,4.10
2019-01-09T04:16:31.473Z,3.70
2019-01-09T04:18:59.770Z,3.50
2019-01-09T04:21:29.062Z,3.57
2019-01-09T04:23:57.320Z,3.53
2019-01-09T04:26:25.613Z,2.63
2019-01-09T04:28:53.930Z,1.63
2019-01-09T04:31:22.183Z,1.90
2019-01-09T04:33:50.452Z,1.73
2019-01-09T04:36:20.406Z,1.63
2019-01-09T04:38:48.676Z,1.50
2019-01-09T04:41:16.975Z,1.60
2019-01-09T04:43:45.260Z,2.33
2019-01-09T04:46:13.515Z,1.30
2019-01-09T04:48:41.773Z,1.20
2019-01-09T04:51:10.063Z,1.07
2019-01-09T04:53:38.311Z,0.80
2019-01-09T04:56:06.595Z,1.00
2019-01-09T04:58:34.860Z,1.13
2019-01-09T05:01:04.166Z,0.70
2019-01-09T05:03:33.466Z,1.00
2019-01-09T05:06:01.735Z,1.00
2019-01-09T05:08:30.007Z,0.83
2019-01-09T05:10:58.296Z,1.07
2019-01-09T05:13:27.587Z,1.23
2019-01-09T05:15:55.848Z,1.00
2019-01-09T05:18:25.205Z,0.70
2019-01-09T05:20:53.496Z,0.90
2019-01-09T05:23:23.285Z,1.13
2019-01-09T05:25:51.630Z,0.90
2019-01-09T05:28:20.939Z,1.00
2019-01-09T05:30:50.247Z,0.73
2019-01-09T05:33:18.540Z,0.93
2019-01-09T05:35:46.798Z,1.40
2019-01-09T05:38:15.079Z,0.93
2019-01-09T05:40:43.360Z,0.83
2019-01-09T05:43:11.724Z,0.80
2019-01-09T05:45:39.994Z,1.07
2019-01-09T05:48:08.273Z,1.03
2019-01-09T05:50:36.591Z,1.17
2019-01-09T05:53:05.956Z,1.40
2019-01-09T05:55:35.257Z,0.90
2019-01-09T05:58:03.544Z,1.40
2019-01-09T06:00:32.835Z,1.70
2019-01-09T06:03:01.141Z,1.53
2019-01-09T06:05:29.394Z,1.70
2019-01-09T06:07:57.677Z,2.03
2019-01-09T06:10:25.961Z,2.40
2019-01-09T06:12:55.244Z,2.20
2019-01-09T06:15:23.552Z,2.80
2019-01-09T06:17:51.847Z,2.03
2019-01-09T06:20:20.124Z,3.03
2019-01-09T06:22:48.417Z,3.03
2019-01-09T06:25:16.712Z,2.90
2019-01-09T06:27:44.985Z,3.40
2019-01-09T06:30:16.421Z,3.47
2019-01-09T06:32:44.803Z,3.00
2019-01-09T06:35:13.160Z,3.40
2019-01-09T06:37:41.516Z,3.07
2019-01-09T06:40:09.784Z,3.17
2019-01-09T06:42:38.046Z,2.73
2019-01-09T06:45:06.809Z,2.87
2019-01-09T06:47:37.071Z,2.50
2019-01-09T06:50:08.524Z,1.90
2019-01-09T06:52:37.053Z,1.90
2019-01-09T06:55:05.561Z,2.00
2019-01-09T06:57:33.851Z,1.90
2019-01-09T07:00:02.126Z,2.20
2019-01-09T07:02:30.426Z,3.03
2019-01-09T07:04:58.788Z,2.10
2019-01-09T07:07:35.809Z,2.17
2019-01-09T07:09:57.177Z,2.23
2019-01-09T07:12:25.474Z,2.10
2019-01-09T07:14:53.961Z,1.80
2019-01-09T07:17:22.242Z,1.80
2019-01-09T07:19:50.530Z,1.70
2019-01-09T07:22:18.796Z,1.70
2019-01-09T07:24:47.123Z,2.30
2019-01-09T07:27:15.401Z,1.63
2019-01-09T07:29:43.682Z,2.10
2019-01-09T07:32:13.945Z,1.47
2019-01-09T07:34:42.203Z,2.00
2019-01-09T07:37:10.500Z,2.03
2019-01-09T07:39:40.007Z,2.50
2019-01-09T07:42:08.368Z,1.83
2019-01-09T07:44:36.633Z,1.77
2019-01-09T07:47:04.968Z,1.93
2019-01-09T07:49:33.316Z,1.80
2019-01-09T07:52:01.619Z,2.20
2019-01-09T07:54:29.891Z,2.20
2019-01-09T07:56:58.173Z,2.33
2019-01-09T07:59:26.459Z,2.83
2019-01-09T08:01:55.751Z,2.07
2019-01-09T08:04:24.017Z,1.80
2019-01-09T08:06:52.326Z,1.80
2019-01-09T08:09:20.657Z,2.20
2019-01-09T08:11:48.921Z,2.37
2019-01-09T08:14:17.190Z,1.90
2019-01-09T08:16:45.533Z,1.70
2019-01-09T08:19:13.873Z,1.97
2019-01-09T08:21:42.175Z,2.07
2019-01-09T08:24:15.557Z,2.00
2019-01-09T08:26:44.017Z,1.70
2019-01-09T08:29:12.306Z,1.93
2019-01-09T08:31:40.621Z,1.80
2019-01-09T08:34:08.907Z,2.10
2019-01-09T08:36:37.182Z,1.80
2019-01-09T08:39:06.679Z,1.87
2019-01-09T08:41:35.195Z,2.43
2019-01-09T08:44:03.461Z,2.17
2019-01-09T08:46:31.730Z,1.77
2019-01-09T08:48:59.977Z,1.63
2019-01-09T08:51:28.256Z,1.90
2019-01-09T08:53:57.530Z,2.30
2019-01-09T08:56:25.828Z,1.70
2019-01-09T08:58:56.168Z,1.80
2019-01-09T09:01:24.479Z,2.13
2019-01-09T09:03:53.992Z,2.30
2019-01-09T09:06:29.216Z,2.40
2019-01-09T09:09:02.235Z,2.20
2019-01-09T09:11:32.476Z,2.33
2019-01-09T09:14:00.761Z,2.20
2019-01-09T09:16:36.634Z,2.30
2019-01-09T09:18:59.093Z,2.70
2019-01-09T09:21:27.497Z,2.73
2019-01-09T09:23:55.741Z,2.37
2019-01-09T09:26:24.036Z,2.70
2019-01-09T09:28:52.291Z,2.40
2019-01-09T09:31:20.570Z,2.17
2019-01-09T09:33:48.841Z,2.37
2019-01-09T09:36:17.104Z,2.93
2019-01-09T09:38:45.360Z,2.50
2019-01-09T09:41:20.655Z,3.30
2019-01-09T09:43:48.903Z,2.47
2019-01-09T09:46:17.166Z,2.43
2019-01-09T09:48:45.485Z,3.27
2019-01-09T09:51:13.752Z,2.60
2019-01-09T09:53:42.032Z,2.60
2019-01-09T09:56:11.302Z,2.30
2019-01-09T09:58:39.577Z,2.37
2019-01-09T10:01:07.838Z,2.30
2019-01-09T10:03:36.144Z,3.00
2019-01-09T10:06:04.600Z,4.00
2019-01-09T10:08:32.883Z,2.37
2019-01-09T10:11:01.291Z,2.80
2019-01-09T10:13:29.553Z,2.83
2019-01-09T10:15:57.808Z,3.40
2019-01-09T10:18:26.090Z,2.40
2019-01-09T10:20:54.522Z,3.33
2019-01-09T10:23:22.736Z,3.87
2019-01-09T10:25:51.011Z,3.83
2019-01-09T10:28:19.310Z,3.80
2019-01-09T10:30:47.707Z,2.53
2019-01-09T10:33:15.967Z,3.50
2019-01-09T10:35:44.256Z,3.00
2019-01-09T10:38:12.539Z,4.00
2019-01-09T10:40:40.783Z,3.00
2019-01-09T10:43:09.066Z,3.13
2019-01-09T10:45:37.393Z,3.10
2019-01-09T10:48:06.834Z,3.27
2019-01-09T10:50:35.133Z,2.70
2019-01-09T10:53:03.393Z,3.00
2019-01-09T10:55:31.664Z,2.97
2019-01-09T10:57:59.929Z,2.50
2019-01-09T11:00:28.244Z,2.70
2019-01-09T11:02:56.706Z,3.10
2019-01-09T11:05:25.043Z,2.60
2019-01-09T11:07:53.311Z,2.87
2019-01-09T11:10:23.661Z,2.40
2019-01-09T11:12:52.013Z,2.17
2019-01-09T11:15:23.488Z,2.40
2019-01-09T11:17:51.768Z,2.20
2019-01-09T11:20:21.386Z,2.10
2019-01-09T11:22:49.765Z,1.77
2019-01-09T11:25:20.359Z,2.03
2019-01-09T11:27:48.731Z,2.13
2019-01-09T11:30:18.366Z,2.67
2019-01-09T11:32:46.766Z,2.47
2019-01-09T11:35:17.406Z,4.07
2019-01-09T11:37:45.707Z,1.83
2019-01-09T11:40:16.671Z,2.20
2019-01-09T11:42:45.005Z,2.07
2019-01-09T11:45:18.804Z,2.93
2019-01-09T11:47:47.623Z,3.20
2019-01-09T11:50:16.678Z,2.47
2019-01-09T11:52:45.058Z,2.30
2019-01-09T11:55:14.670Z,1.80
2019-01-09T11:57:42.930Z,2.50
2019-01-09T12:00:22.863Z,2.57
2019-01-09T12:02:52.256Z,1.80
2019-01-09T12:05:20.517Z,1.80
2019-01-09T12:07:48.859Z,2.37
2019-01-09T12:10:19.462Z,4.40
2019-01-09T12:12:47.810Z,2.03
2019-01-09T12:15:17.538Z,2.60
2019-01-09T12:17:45.875Z,2.40
2019-01-09T12:20:18.476Z,3.30
2019-01-09T12:22:47.123Z,2.53
2019-01-09T12:25:15.393Z,2.70
2019-01-09T12:27:43.674Z,2.80
2019-01-09T12:30:26.515Z,3.20
2019-01-09T12:32:54.842Z,2.90
2019-01-09T12:35:23.338Z,1.80
2019-01-09T12:37:51.703Z,2.87
2019-01-09T12:40:20.118Z,2.30
2019-01-09T12:42:48.418Z,3.50
2019-01-09T12:45:17.459Z,2.43
2019-01-09T12:47:46.840Z,2.23
2019-01-09T12:50:18.431Z,1.90
2019-01-09T12:52:46.696Z,2.40
2019-01-09T12:55:15.024Z,3.60
2019-01-09T12:57:43.283Z,3.60
2019-01-09T13:00:20.762Z,3.30
2019-01-09T13:02:50.022Z,1.93
2019-01-09T13:05:18.316Z,2.73
2019-01-09T13:07:46.593Z,2.23
2019-01-09T13:10:14.990Z,2.00
2019-01-09T13:12:43.568Z,2.40
2019-01-09T13:15:12.172Z,1.67
2019-01-09T13:17:40.496Z,1.90
2019-01-09T13:20:14.029Z,1.13
2019-01-09T13:22:42.598Z,2.00
2019-01-09T13:25:12.403Z,2.80
2019-01-09T13:27:44.355Z,1.80
2019-01-09T13:30:15.823Z,2.60
2019-01-09T13:32:44.172Z,2.40
2019-01-09T13:35:12.502Z,2.40
2019-01-09T13:37:40.772Z,3.73
2019-01-09T13:40:14.128Z,4.17
2019-01-09T13:42:42.444Z,2.90
2019-01-09T13:45:13.459Z,2.53
2019-01-09T13:47:41.997Z,2.70
2019-01-09T13:50:12.797Z,2.73
2019-01-09T13:52:41.052Z,2.83
2019-01-09T13:55:11.663Z,4.80
2019-01-09T13:57:40.114Z,3.97
2019-01-09T14:00:11.636Z,4.33
2019-01-09T14:02:40.573Z,4.10
2019-01-09T14:05:09.867Z,3.10
2019-01-09T14:07:38.234Z,3.70
2019-01-09T14:10:23.875Z,2.20
2019-01-09T14:12:52.137Z,3.30
2019-01-09T14:15:21.847Z,1.90
2019-01-09T14:20:35.445Z,2.40
2019-01-09T14:23:03.691Z,2.57
2019-01-09T14:25:31.967Z,2.60
2019-01-09T14:28:01.482Z,3.53
2019-01-09T14:30:30.056Z,5.67
2019-01-09T14:32:58.318Z,2.73
2019-01-09T14:35:26.607Z,3.40
2019-01-09T14:37:54.893Z,3.73
2019-01-09T14:40:23.227Z,3.37
2019-01-09T14:42:51.516Z,2.50
2019-01-09T14:45:19.791Z,2.50
2019-01-09T14:47:48.098Z,3.30
2019-01-09T14:50:19.112Z,5.13
2019-01-09T14:52:47.390Z,3.50
2019-01-09T14:55:16.402Z,2.60
2019-01-09T14:57:45.025Z,2.10
2019-01-09T15:00:16.394Z,1.90
2019-01-09T15:02:44.682Z,2.53
2019-01-09T15:05:13.076Z,2.10
2019-01-09T15:07:41.378Z,2.20
2019-01-09T15:10:18.076Z,1.97
2019-01-09T15:12:47.003Z,2.00
2019-01-09T15:15:17.128Z,2.00
2019-01-09T15:17:45.427Z,1.90
2019-01-09T15:20:22.037Z,1.97
2019-01-09T15:22:50.363Z,2.87
2019-01-09T15:25:19.012Z,2.77
2019-01-09T15:27:47.660Z,3.60
2019-01-09T15:30:19.115Z,2.40
2019-01-09T15:32:47.589Z,2.53
2019-01-09T15:35:15.854Z,2.17
2019-01-09T15:37:44.115Z,1.90
2019-01-09T15:40:18.567Z,1.87
2019-01-09T15:42:47.017Z,1.70
2019-01-09T15:45:15.371Z,1.80
2019-01-09T15:47:44.201Z,2.17
2019-01-09T15:50:20.988Z,2.00
2019-01-09T15:52:49.274Z,2.00
2019-01-09T15:55:17.876Z,2.27
2019-01-09T15:57:47.886Z,3.10
2019-01-09T16:00:19.443Z,2.13
2019-01-09T16:02:47.708Z,2.00
2019-01-09T16:05:16.356Z,2.73
2019-01-09T16:07:44.613Z,2.13
2019-01-09T16:10:18.792Z,3.50
2019-01-09T16:12:47.049Z,3.17
2019-01-09T16:15:17.943Z,3.13
2019-01-09T16:17:47.394Z,3.57
2019-01-09T16:20:20.452Z,4.50
2019-01-09T16:22:49.767Z,3.47
2019-01-09T16:25:20.208Z,3.80
2019-01-09T16:27:48.496Z,4.30
2019-01-09T16:30:34.212Z,4.17
2019-01-09T16:33:04.562Z,2.67
2019-01-09T16:35:35.037Z,4.13
2019-01-09T16:38:03.756Z,1.93
2019-01-09T16:40:32.308Z,3.10
2019-01-09T16:43:01.661Z,2.27
2019-01-09T16:45:30.306Z,2.60
2019-01-09T16:47:58.589Z,2.57
2019-01-09T16:50:28.268Z,2.57
2019-01-09T16:52:56.532Z,3.07
2019-01-09T16:55:25.087Z,2.80
2019-01-09T16:57:53.365Z,1.97
2019-01-09T17:00:36.722Z,2.00
2019-01-09T17:03:05.162Z,1.90
2019-01-09T17:05:33.529Z,2.50
2019-01-09T17:08:02.169Z,2.13
2019-01-09T17:10:32.563Z,3.20
2019-01-09T17:13:00.494Z,3.80
2019-01-09T17:15:28.839Z,3.50
2019-01-09T17:17:57.187Z,2.60
2019-01-09T17:20:27.432Z,2.87
2019-01-09T17:22:57.761Z,2.87
2019-01-09T17:25:26.099Z,3.87
2019-01-09T17:27:55.501Z,4.30
2019-01-09T17:30:27.308Z,4.13
2019-01-09T17:32:55.722Z,3.30
2019-01-09T17:35:24.096Z,7.77
2019-01-09T17:37:52.664Z,3.10
2019-01-09T17:40:25.540Z,4.20
2019-01-09T17:42:54.137Z,3.97
2019-01-09T17:45:22.421Z,2.97
2019-01-09T17:47:57.664Z,2.47
2019-01-09T17:50:51.571Z,2.60
2019-01-09T17:53:19.894Z,2.60
2019-01-09T17:55:48.142Z,2.30
2019-01-09T17:58:17.426Z,3.33
2019-01-09T18:00:46.154Z,2.73
2019-01-09T18:03:15.448Z,3.13
2019-01-09T18:05:43.735Z,3.03
2019-01-09T18:08:12.028Z,3.70
2019-01-09T18:10:40.290Z,4.40
2019-01-09T18:13:12.333Z,4.53
2019-01-09T18:15:40.699Z,4.33
2019-01-09T18:18:09.018Z,4.60
2019-01-09T18:20:37.278Z,4.90
2019-01-09T18:23:05.693Z,5.47
2019-01-09T18:25:33.980Z,4.13
2019-01-09T18:28:02.268Z,5.40
2019-01-09T18:30:45.922Z,7.77
2019-01-09T18:33:19.808Z,6.20
2019-01-09T18:36:10.274Z,4.60
2019-01-09T18:38:53.125Z,5.60
2019-01-09T18:41:24.574Z,4.33
2019-01-09T18:44:04.624Z,5.40
2019-01-09T18:47:04.264Z,4.30
2019-01-09T18:49:41.670Z,5.87
2019-01-09T18:52:15.891Z,5.70
2019-01-09T18:54:44.195Z,5.90
2019-01-09T18:57:12.496Z,4.67
2019-01-09T18:59:40.761Z,3.93
2019-01-09T19:02:10.361Z,6.77
2019-01-09T19:04:40.077Z,9.20
2019-01-09T19:07:08.772Z,7.07
2019-01-09T19:09:37.094Z,4.10
2019-01-09T19:12:05.488Z,3.13
2019-01-09T19:14:33.739Z,3.93
2019-01-09T19:17:02.016Z,3.00
2019-01-09T19:19:30.607Z,2.90
2019-01-09T19:21:58.824Z,3.10
2019-01-09T19:24:27.116Z,2.53
2019-01-09T19:26:55.366Z,3.67
2019-01-09T19:29:23.718Z,4.40
2019-01-09T19:31:52.344Z,4.30
2019-01-09T19:34:21.222Z,3.43
2019-01-09T19:36:49.499Z,4.40
2019-01-09T19:39:17.782Z,4.43
2019-01-09T19:41:46.062Z,3.90
2019-01-09T19:44:14.372Z,4.13
2019-01-09T19:46:42.634Z,4.00
2019-01-09T19:49:10.932Z,4.70
2019-01-09T19:51:39.203Z,2.80
2019-01-09T19:54:07.488Z,3.47
2019-01-09T19:56:35.762Z,2.27
2019-01-09T19:59:04.280Z,3.43
2019-01-09T20:01:32.590Z,2.43
2019-01-09T20:04:00.843Z,3.40
2019-01-09T20:06:29.104Z,3.80
2019-01-09T20:08:57.412Z,4.87
2019-01-09T20:11:26.479Z,4.27
2019-01-09T20:13:54.971Z,3.23
2019-01-09T20:16:23.288Z,2.83
2019-01-09T20:18:51.540Z,2.40
2019-01-09T20:21:19.885Z,3.03
2019-01-09T20:23:48.225Z,3.17
2019-01-09T20:26:16.599Z,4.13
2019-01-09T20:28:44.932Z,2.40
2019-01-09T20:31:13.281Z,2.40
2019-01-09T20:33:41.505Z,4.00
2019-01-09T20:36:09.777Z,3.70
2019-01-09T20:38:38.184Z,3.40
2019-01-09T20:41:06.517Z,3.10
2019-01-09T20:43:34.822Z,3.50
2019-01-09T20:46:03.236Z,3.77
2019-01-09T20:48:31.609Z,3.93
2019-01-09T20:51:00.009Z,3.00
2019-01-09T20:53:28.357Z,4.80
2019-01-09T20:55:56.759Z,4.67
2019-01-09T20:58:25.010Z,2.80
2019-01-09T21:00:53.411Z,4.00
2019-01-09T21:03:21.862Z,4.10
2019-01-09T21:05:50.094Z,3.67
2019-01-09T21:08:19.606Z,2.63
2019-01-09T21:10:48.103Z,2.70
2019-01-09T21:13:16.392Z,3.17
2019-01-09T21:15:44.779Z,2.63
2019-01-09T21:18:13.185Z,3.10
2019-01-09T21:20:41.581Z,2.10
2019-01-09T21:23:09.936Z,3.50
2019-01-09T21:25:39.288Z,3.77
2019-01-09T21:28:07.604Z,2.90
2019-01-09T21:30:36.989Z,3.80
2019-01-09T21:33:05.671Z,5.57
2019-01-09T21:35:36.607Z,3.93
2019-01-09T21:38:06.905Z,3.33
2019-01-09T21:40:35.210Z,4.60
2019-01-09T21:43:03.596Z,4.10
2019-01-09T21:45:31.950Z,4.57
2019-01-09T21:48:00.266Z,4.50
2019-01-09T21:50:28.883Z,5.30
2019-01-09T21:52:57.226Z,4.60
2019-01-09T21:55:25.660Z,3.70
2019-01-09T21:57:54.893Z,5.17
2019-01-09T22:00:25.227Z,5.20
2019-01-09T22:02:53.492Z,4.87
2019-01-09T22:05:22.433Z,3.23
2019-01-09T22:07:51.498Z,3.47
2019-01-09T22:10:27.987Z,3.63
2019-01-09T22:12:57.420Z,3.33
2019-01-09T22:15:26.141Z,3.10
2019-01-09T22:17:55.336Z,4.20
2019-01-09T22:20:23.820Z,4.33
2019-01-09T22:22:52.103Z,5.13
2019-01-09T22:25:24.384Z,3.40
2019-01-09T22:27:55.292Z,4.10
2019-01-09T22:30:26.497Z,4.27
2019-01-09T22:33:00.805Z,3.03
2019-01-09T22:35:29.152Z,4.60
2019-01-09T22:38:04.553Z,5.73
2019-01-09T22:40:32.839Z,4.40
2019-01-09T22:43:09.910Z,4.10
2019-01-09T22:45:38.196Z,4.13
2019-01-09T22:48:07.449Z,3.30
2019-01-09T22:50:35.714Z,5.47
2019-01-09T22:53:04.073Z,3.57
2019-01-09T22:55:32.364Z,4.53
2019-01-09T22:58:00.640Z,5.63
2019-01-09T23:00:43.627Z,3.63
2019-01-09T23:03:14.221Z,5.00
2019-01-09T23:05:45.723Z,4.10
2019-01-09T23:08:14.009Z,4.40
2019-01-09T23:10:42.385Z,5.87
2019-01-09T23:13:12.876Z,5.80
2019-01-09T23:15:42.315Z,4.63
2019-01-09T23:18:12.848Z,4.97
2019-01-09T23:20:41.120Z,4.70
2019-01-09T23:23:15.932Z,6.40
2019-01-09T23:25:44.231Z,4.30
2019-01-09T23:28:12.699Z,3.97
2019-01-09T23:30:40.970Z,4.33
2019-01-09T23:33:09.352Z,5.33
2019-01-09T23:35:37.705Z,4.70
2019-01-09T23:38:06.092Z,4.77
2019-01-09T23:40:34.467Z,5.57
2019-01-09T23:43:02.829Z,5.47
2019-01-09T23:45:31.346Z,5.17
2019-01-09T23:48:01.619Z,5.07
2019-01-09T23:50:30.216Z,4.80
2019-01-09T23:53:01.777Z,3.70
2019-01-09T23:55:30.399Z,3.20
2019-01-09T23:57:58.764Z,3.13
